createdAt,value
2022-10-12T00:01:21.952Z,99821.40
2022-10-12T00:04:39.550Z,99818.05
2022-10-12T00:07:56.500Z,99814.84
2022-10-12T00:11:14.511Z,99818.57
2022-10-12T00:14:30.753Z,99812.58
2022-10-12T00:17:48.019Z,99821.59
2022-10-12T00:21:14.964Z,99818.27
2022-10-12T00:24:31.319Z,99817.27
2022-10-12T00:27:48.022Z,99817.41
2022-10-12T00:31:04.664Z,99810.22
2022-10-12T00:34:22.250Z,99813.00
2022-10-12T00:37:39.968Z,99809.37
2022-10-12T00:40:57.631Z,99809.50
2022-10-12T00:44:46.895Z,99818.27
2022-10-12T00:48:03.125Z,99811.31
2022-10-12T00:51:20.374Z,99821.14
2022-10-12T00:54:40.314Z,99823.47
2022-10-12T00:57:59.632Z,99825.08
2022-10-12T01:01:17.006Z,99814.47
2022-10-12T01:04:34.278Z,99813.30
2022-10-12T01:07:50.612Z,99811.27
2022-10-12T01:11:07.462Z,99815.37
2022-10-12T01:14:24.243Z,99812.97
2022-10-12T01:17:50.497Z,99813.61
2022-10-12T01:21:18.966Z,99819.64
2022-10-12T01:24:57.438Z,99813.92
2022-10-12T01:28:18.970Z,99815.56
2022-10-12T01:31:41.542Z,99824.45
2022-10-12T01:35:07.365Z,99821.09
2022-10-12T01:38:33.695Z,99819.68
2022-10-12T01:41:53.486Z,99813.09
2022-10-12T01:45:19.241Z,99818.00
2022-10-12T01:48:36.066Z,99818.23
2022-10-12T01:52:25.034Z,99818.36
2022-10-12T01:55:48.589Z,99816.45
2022-10-12T01:59:10.975Z,99820.37
2022-10-12T02:02:35.351Z,99817.41
2022-10-12T02:05:56.216Z,99811.92
2022-10-12T02:09:19.440Z,99820.80
2022-10-12T02:12:39.143Z,99814.22
2022-10-12T02:15:56.793Z,99819.48
2022-10-12T02:19:18.135Z,99824.15
2022-10-12T02:22:40.154Z,99822.96
2022-10-12T02:25:57.558Z,99818.31
2022-10-12T02:29:18.788Z,99830.14
2022-10-12T02:32:41.397Z,99827.64
2022-10-12T02:36:02.952Z,99822.27
2022-10-12T02:39:23.584Z,99822.05
2022-10-12T02:43:08.811Z,99825.63
2022-10-12T02:46:05.592Z,99819.77
2022-10-12T02:49:23.036Z,99818.45
2022-10-12T02:52:40.854Z,99822.88
2022-10-12T02:56:03.848Z,99825.25
2022-10-12T02:59:20.823Z,99820.72
2022-10-12T03:02:37.529Z,99825.84
2022-10-12T03:05:54.009Z,99822.39
2022-10-12T03:09:11.096Z,99830.50
2022-10-12T03:12:27.448Z,99821.19
2022-10-12T03:15:44.017Z,99819.97
2022-10-12T03:19:00.321Z,99819.23
2022-10-12T03:22:17.317Z,99823.06
2022-10-12T03:25:33.945Z,99817.08
2022-10-12T03:28:49.899Z,99822.58
2022-10-12T03:32:06.149Z,99819.95
2022-10-12T03:35:22.743Z,99816.84
2022-10-12T03:38:38.825Z,99821.48
2022-10-12T03:41:55.493Z,99825.66
2022-10-12T03:45:13.324Z,99818.98
2022-10-12T03:48:29.414Z,99829.23
2022-10-12T03:51:45.592Z,99828.63
2022-10-12T03:55:02.297Z,99831.25
2022-10-12T03:58:19.725Z,99825.39
2022-10-12T04:01:40.345Z,99835.41
2022-10-12T04:05:09.765Z,99828.93
2022-10-12T04:08:27.823Z,99835.25
2022-10-12T04:11:46.827Z,99832.05
2022-10-12T04:15:03.698Z,99832.87
2022-10-12T04:18:20.714Z,99834.88
2022-10-12T04:21:39.243Z,99831.52
2022-10-12T04:24:58.371Z,99833.94
2022-10-12T04:28:15.067Z,99842.63
2022-10-12T04:31:38.746Z,99843.82
2022-10-12T04:34:54.948Z,99845.00
2022-10-12T04:38:11.463Z,99839.70
2022-10-12T04:41:27.866Z,99840.03
2022-10-12T04:44:45.008Z,99835.41
2022-10-12T04:48:01.470Z,99839.34
2022-10-12T04:51:17.539Z,99835.78
2022-10-12T04:54:34.458Z,99840.53
2022-10-12T04:57:50.839Z,99843.98
2022-10-12T05:01:08.199Z,99845.22
2022-10-12T05:04:24.488Z,99847.02
2022-10-12T05:07:41.271Z,99851.91
2022-10-12T05:10:59.957Z,99855.14
2022-10-12T05:14:16.342Z,99851.25
2022-10-12T05:17:32.781Z,99857.94
2022-10-12T05:20:50.439Z,99851.28
2022-10-12T05:24:06.955Z,99863.02
2022-10-12T05:27:23.821Z,99867.08
2022-10-12T05:30:40.637Z,99870.10
2022-10-12T05:33:57.385Z,99871.41
2022-10-12T05:37:14.822Z,99876.33
2022-10-12T05:40:30.888Z,99879.57
2022-10-12T05:43:46.885Z,99872.64
2022-10-12T05:47:03.723Z,99868.96
2022-10-12T05:50:24.510Z,99868.23
2022-10-12T05:53:40.828Z,99872.20
2022-10-12T05:56:58.014Z,99867.89
2022-10-12T06:00:18.019Z,99857.38
2022-10-12T06:03:35.125Z,99868.96
2022-10-12T06:06:51.677Z,99877.11
2022-10-12T06:10:09.787Z,99881.66
2022-10-12T06:13:26.833Z,99873.91
2022-10-12T06:16:43.010Z,99872.36
2022-10-12T06:20:00.477Z,99884.30
2022-10-12T06:23:17.946Z,99882.18
2022-10-12T06:26:35.131Z,99887.31
2022-10-12T06:29:52.543Z,99883.83
2022-10-12T06:33:08.771Z,99889.45
2022-10-12T06:36:25.528Z,99882.86
2022-10-12T06:39:41.536Z,99883.95
2022-10-12T06:43:00.576Z,99884.75
2022-10-12T06:46:16.267Z,99890.72
2022-10-12T06:49:32.269Z,99894.24
2022-10-12T06:52:52.105Z,99885.23
2022-10-12T06:56:15.128Z,99891.45
2022-10-12T06:59:32.201Z,99890.36
2022-10-12T07:02:49.374Z,99892.36
2022-10-12T07:06:13.430Z,99898.47
2022-10-12T07:09:31.606Z,99897.58
2022-10-12T07:12:47.997Z,99899.84
2022-10-12T07:16:05.356Z,99894.88
2022-10-12T07:19:21.460Z,99901.44
2022-10-12T07:22:38.196Z,99906.44
2022-10-12T07:25:58.956Z,99896.61
2022-10-12T07:29:15.426Z,99904.69
2022-10-12T07:32:31.702Z,99899.69
2022-10-12T07:36:10.731Z,99900.27
2022-10-12T07:39:06.407Z,99892.48
2022-10-12T07:42:23.112Z,99900.42
2022-10-12T07:45:41.993Z,99892.70
2022-10-12T07:48:58.742Z,99882.58
2022-10-12T07:52:16.141Z,99887.08
2022-10-12T07:55:33.026Z,99883.09
2022-10-12T07:58:49.663Z,99883.70
2022-10-12T08:02:06.479Z,99881.23
2022-10-12T08:05:24.762Z,99878.58
2022-10-12T08:08:43.155Z,99875.70
2022-10-12T08:12:01.592Z,99881.97
2022-10-12T08:15:19.853Z,99886.97
2022-10-12T08:18:36.883Z,99885.19
2022-10-12T08:21:54.775Z,99880.84
2022-10-12T08:25:12.192Z,99886.13
2022-10-12T08:28:29.286Z,99885.45
2022-10-12T08:31:49.460Z,99886.98
2022-10-12T08:35:05.566Z,99886.53
2022-10-12T08:38:23.332Z,99895.05
2022-10-12T08:42:01.392Z,99880.13
2022-10-12T08:45:58.166Z,99885.80
2022-10-12T08:49:20.111Z,99881.04
2022-10-12T08:52:42.232Z,99883.53
2022-10-12T08:55:59.974Z,99889.34
2022-10-12T08:59:20.726Z,99885.22
2022-10-12T09:02:55.838Z,99888.17
2022-10-12T09:06:20.068Z,99896.33
2022-10-12T09:09:51.663Z,99897.78
2022-10-12T09:13:15.387Z,99896.27
2022-10-12T09:16:37.434Z,99889.00
2022-10-12T09:19:53.628Z,99893.16
2022-10-12T09:23:15.411Z,99895.28
2022-10-12T09:26:40.789Z,99892.73
2022-10-12T09:30:01.383Z,99888.11
2022-10-12T09:33:28.888Z,99896.56
2022-10-12T09:36:50.861Z,99895.51
2022-10-12T09:40:07.923Z,99896.09
2022-10-12T09:43:24.679Z,99902.97
2022-10-12T09:46:56.899Z,99903.52
2022-10-12T09:50:15.552Z,99899.50
2022-10-12T09:53:42.056Z,99900.78
2022-10-12T09:57:00.060Z,99901.41
2022-10-12T10:00:33.965Z,99901.70
2022-10-12T10:03:52.830Z,99891.35
2022-10-12T10:07:28.790Z,99894.88
2022-10-12T10:10:53.697Z,99905.59
2022-10-12T10:14:14.037Z,99898.55
2022-10-12T10:17:37.280Z,99896.83
2022-10-12T10:20:57.537Z,99899.07
2022-10-12T10:24:20.565Z,99899.67
2022-10-12T10:27:44.214Z,99895.72
2022-10-12T10:31:14.468Z,99894.50
2022-10-12T10:34:33.582Z,99894.18
2022-10-12T10:37:54.764Z,99892.33
2022-10-12T10:41:15.200Z,99886.41
2022-10-12T10:48:02.324Z,99892.03
2022-10-12T10:51:18.793Z,99886.48
2022-10-12T10:54:41.894Z,99880.07
2022-10-12T10:58:05.581Z,99877.20
2022-10-12T11:01:30.408Z,99879.97
2022-10-12T11:04:51.600Z,99875.47
2022-10-12T11:08:11.389Z,99877.30
2022-10-12T11:11:32.035Z,99878.56
2022-10-12T11:14:54.260Z,99884.28
2022-10-12T11:18:17.565Z,99876.16
2022-10-12T11:21:41.287Z,99879.80
2022-10-12T11:25:00.690Z,99872.28
2022-10-12T11:28:20.850Z,99875.38
2022-10-12T11:31:43.010Z,99873.84
2022-10-12T11:35:04.354Z,99876.08
2022-10-12T11:38:29.053Z,99861.45
2022-10-12T11:42:20.488Z,99865.96
2022-10-12T11:45:16.279Z,99862.19
2022-10-12T11:48:36.313Z,99859.89
2022-10-12T11:51:57.361Z,99858.52
2022-10-12T11:55:48.969Z,99847.38
2022-10-12T11:59:10.318Z,99844.78
2022-10-12T12:02:31.542Z,99852.48
2022-10-12T12:05:48.848Z,99850.33
2022-10-12T12:09:15.371Z,99848.84
2022-10-12T12:12:35.276Z,99846.36
2022-10-12T12:16:07.164Z,99845.21
2022-10-12T12:19:48.277Z,99843.58
2022-10-12T12:23:04.508Z,99835.58
2022-10-12T12:26:29.384Z,99835.40
2022-10-12T12:29:45.943Z,99828.41
2022-10-12T12:33:06.534Z,99835.58
2022-10-12T12:36:33.755Z,99831.09
2022-10-12T12:39:51.429Z,99828.80
2022-10-12T12:43:58.689Z,99818.14
2022-10-12T12:47:45.953Z,99822.11
2022-10-12T12:51:09.127Z,99825.28
2022-10-12T12:54:31.987Z,99820.64
2022-10-12T12:58:08.314Z,99806.88
2022-10-12T13:01:49.170Z,99812.34
2022-10-12T13:06:05.323Z,99811.71
2022-10-12T13:09:49.389Z,99808.74
2022-10-12T13:13:25.737Z,99802.08
2022-10-12T13:20:32.177Z,99800.39
2022-10-12T13:23:49.582Z,99813.70
2022-10-12T13:27:13.081Z,99806.08
2022-10-12T13:30:38.870Z,99799.09
2022-10-12T13:34:02.664Z,99798.78
2022-10-12T13:37:24.494Z,99790.30
2022-10-12T13:40:45.250Z,99786.28
2022-10-12T13:44:06.228Z,99795.27
2022-10-12T13:47:37.675Z,99794.59
2022-10-12T13:51:03.701Z,99787.78
2022-10-12T13:54:29.899Z,99788.15
2022-10-12T13:58:07.255Z,99789.63
2022-10-12T14:01:26.598Z,99792.12
2022-10-12T14:04:44.093Z,99789.63
2022-10-12T14:08:05.910Z,99781.83
2022-10-12T14:11:22.968Z,99777.01
2022-10-12T14:14:44.821Z,99773.34
2022-10-12T14:18:01.692Z,99777.01
2022-10-12T14:21:30.173Z,99779.85
2022-10-12T14:24:47.306Z,99778.69
2022-10-12T14:28:11.730Z,99772.05
2022-10-12T14:31:46.331Z,99772.86
2022-10-12T14:35:19.768Z,99774.22
2022-10-12T14:38:50.238Z,99766.56
2022-10-12T14:42:09.766Z,99759.42
2022-10-12T14:45:34.434Z,99762.59
2022-10-12T14:48:50.979Z,99758.27
2022-10-12T14:52:09.253Z,99767.24
2022-10-12T14:55:30.134Z,99755.95
2022-10-12T14:58:46.741Z,99756.95
2022-10-12T15:02:03.235Z,99766.11
2022-10-12T15:05:26.100Z,99758.28
2022-10-12T15:08:42.568Z,99762.96
2022-10-12T15:11:59.290Z,99753.49
2022-10-12T15:15:35.352Z,99758.32
2022-10-12T15:18:51.788Z,99765.63
2022-10-12T15:22:08.214Z,99766.48
2022-10-12T15:25:31.392Z,99763.15
2022-10-12T15:28:48.457Z,99766.80
2022-10-12T15:32:06.329Z,99767.48
2022-10-12T15:35:37.811Z,99768.66
2022-10-12T15:38:54.653Z,99774.33
2022-10-12T15:42:11.266Z,99773.66
2022-10-12T15:45:31.446Z,99764.36
2022-10-12T15:48:47.689Z,99761.03
2022-10-12T15:52:05.069Z,99763.20
2022-10-12T15:55:32.345Z,99767.84
2022-10-12T15:58:50.445Z,99765.53
2022-10-12T16:02:08.258Z,99762.55
2022-10-12T16:05:36.718Z,99763.05
2022-10-12T16:08:53.112Z,99768.54
2022-10-12T16:12:10.669Z,99770.70
2022-10-12T16:15:32.576Z,99765.38
2022-10-12T16:18:49.618Z,99761.19
2022-10-12T16:22:07.433Z,99759.33
2022-10-12T16:25:28.282Z,99765.78
2022-10-12T16:28:45.659Z,99759.20
2022-10-12T16:32:02.805Z,99754.63
2022-10-12T16:35:20.732Z,99750.07
2022-10-12T16:38:37.328Z,99755.13
2022-10-12T16:41:54.419Z,99754.31
2022-10-12T16:45:12.974Z,99754.34
2022-10-12T16:48:30.066Z,99742.19
2022-10-12T16:51:49.199Z,99749.00
2022-10-12T16:55:03.476Z,99751.20
2022-10-12T16:58:20.637Z,99758.56
2022-10-12T17:01:36.928Z,99757.11
2022-10-12T17:04:55.242Z,99763.98
2022-10-12T17:08:41.660Z,99759.75
2022-10-12T17:12:00.638Z,99755.33
2022-10-12T17:15:19.049Z,99758.03
2022-10-12T17:18:35.161Z,99760.60
2022-10-12T17:21:57.273Z,99755.05
2022-10-12T17:25:16.004Z,99757.02
2022-10-12T17:28:32.466Z,99753.14
2022-10-12T17:31:49.435Z,99757.06
2022-10-12T17:35:13.201Z,99759.01
2022-10-12T17:38:29.761Z,99758.62
2022-10-12T17:41:48.127Z,99759.35
2022-10-12T17:45:04.302Z,99764.37
2022-10-12T17:48:20.528Z,99757.28
2022-10-12T17:51:39.351Z,99760.65
2022-10-12T17:54:55.527Z,99758.70
2022-10-12T17:58:12.106Z,99755.53
2022-10-12T18:01:29.142Z,99753.31
2022-10-12T18:04:47.073Z,99758.20
2022-10-12T18:08:05.790Z,99752.36
2022-10-12T18:11:26.716Z,99749.16
2022-10-12T18:14:42.787Z,99750.55
2022-10-12T18:17:59.258Z,99747.35
2022-10-12T18:21:19.105Z,99744.45
2022-10-12T18:24:36.124Z,99743.08
2022-10-12T18:27:53.350Z,99750.59
2022-10-12T18:31:12.187Z,99741.56
2022-10-12T18:34:33.021Z,99736.69
2022-10-12T18:37:48.443Z,99742.38
2022-10-12T18:41:17.898Z,99735.02
2022-10-12T18:44:34.171Z,99737.38
2022-10-12T18:47:50.424Z,99751.70
2022-10-12T18:51:14.000Z,99732.24
2022-10-12T18:54:32.085Z,99728.89
2022-10-12T18:57:48.759Z,99733.50
2022-10-12T19:01:10.458Z,99733.20
2022-10-12T19:04:26.836Z,99732.92
2022-10-12T19:07:45.012Z,99738.60
2022-10-12T19:11:01.318Z,99733.05
2022-10-12T19:14:21.046Z,99731.91
2022-10-12T19:17:39.730Z,99729.53
2022-10-12T19:20:56.026Z,99733.14
2022-10-12T19:24:17.855Z,99738.95
2022-10-12T19:27:36.827Z,99739.48
2022-10-12T19:31:06.888Z,99742.80
2022-10-12T19:34:27.389Z,99736.42
2022-10-12T19:37:46.541Z,99742.22
2022-10-12T19:41:03.394Z,99740.23
2022-10-12T19:44:20.890Z,99745.20
2022-10-12T19:47:37.379Z,99737.00
2022-10-12T19:50:54.644Z,99745.30
2022-10-12T19:54:12.419Z,99743.05
2022-10-12T19:57:29.365Z,99737.09
2022-10-12T20:00:47.627Z,99738.16
2022-10-12T20:04:06.231Z,99745.05
2022-10-12T20:07:24.830Z,99736.32
2022-10-12T20:10:41.125Z,99743.51
2022-10-12T20:13:58.638Z,99740.95
2022-10-12T20:17:15.476Z,99744.00
2022-10-12T20:20:31.888Z,99742.32
2022-10-12T20:23:49.913Z,99740.17
2022-10-12T20:27:06.976Z,99742.66
2022-10-12T20:30:24.841Z,99740.17
2022-10-12T20:33:43.347Z,99732.51
2022-10-12T20:36:59.702Z,99737.91
2022-10-12T20:40:19.320Z,99745.81
2022-10-12T20:43:33.118Z,99737.19
2022-10-12T20:46:51.056Z,99742.36
2022-10-12T20:50:08.012Z,99742.59
2022-10-12T20:53:25.884Z,99741.88
2022-10-12T20:56:44.180Z,99745.95
2022-10-12T21:00:01.140Z,99741.95
2022-10-12T21:03:18.343Z,99734.66
2022-10-12T21:06:34.698Z,99731.55
2022-10-12T21:09:51.878Z,99741.84
2022-10-12T21:13:08.188Z,99742.80
2022-10-12T21:16:25.420Z,99742.46
2022-10-12T21:19:41.735Z,99732.06
2022-10-12T21:22:57.884Z,99738.19
2022-10-12T21:26:21.813Z,99737.91
2022-10-12T21:29:38.033Z,99735.14
2022-10-12T21:32:54.131Z,99729.50
2022-10-12T21:36:21.025Z,99724.57
2022-10-12T21:39:37.775Z,99727.59
2022-10-12T21:42:54.712Z,99738.58
2022-10-12T21:46:16.815Z,99725.78
2022-10-12T21:49:33.757Z,99733.16
2022-10-12T21:52:50.422Z,99724.59
2022-10-12T21:56:07.470Z,99722.77
2022-10-12T21:59:23.577Z,99725.64
2022-10-12T22:02:41.095Z,99724.11
2022-10-12T22:05:57.522Z,99723.86
2022-10-12T22:09:19.973Z,99727.45
2022-10-12T22:12:36.863Z,99727.20
2022-10-12T22:15:53.615Z,99726.28
2022-10-12T22:19:15.127Z,99731.48
2022-10-12T22:22:32.033Z,99727.38
2022-10-12T22:25:48.654Z,99728.83
2022-10-12T22:29:09.491Z,99734.60
2022-10-12T22:32:25.684Z,99732.02
2022-10-12T22:35:43.930Z,99734.06
2022-10-12T22:39:00.208Z,99738.73
2022-10-12T22:42:16.737Z,99736.50
2022-10-12T22:45:33.212Z,99735.65
2022-10-12T22:48:50.655Z,99729.80
2022-10-12T22:52:06.925Z,99735.45
2022-10-12T22:55:23.734Z,99730.55
2022-10-12T22:58:41.139Z,99726.75
2022-10-12T23:01:57.275Z,99730.72
2022-10-12T23:05:14.647Z,99735.39
2022-10-12T23:08:31.067Z,99727.59
2022-10-12T23:11:49.265Z,99733.25
2022-10-12T23:15:06.429Z,99733.84
2022-10-12T23:18:22.868Z,99728.16
2022-10-12T23:21:40.605Z,99737.59
2022-10-12T23:24:57.286Z,99717.32
2022-10-12T23:28:14.448Z,99725.66
2022-10-12T23:31:36.497Z,99726.06
2022-10-12T23:34:52.955Z,99717.41
2022-10-12T23:38:08.958Z,99712.72
2022-10-12T23:41:25.332Z,99709.14
2022-10-12T23:44:41.652Z,99711.42
2022-10-12T23:47:57.886Z,99713.97
2022-10-12T23:51:15.766Z,99715.45
2022-10-12T23:54:35.163Z,99729.80
2022-10-12T23:57:51.206Z,99720.45
